sensor_id;sensor_type;location;lat;lon;timestamp;pressure;altitude;pressure_sealevel;temperature
34807;BMP180;18310;55.586;12.286;2022-09-12T00:02:37;101729.00;;;20.70
34807;BMP180;18310;55.586;12.286;2022-09-12T00:05:40;101735.00;;;20.70
34807;BMP180;18310;55.586;12.286;2022-09-12T00:08:45;101732.00;;;20.70
34807;BMP180;18310;55.586;12.286;2022-09-12T00:11:49;101727.00;;;20.70
34807;BMP180;18310;55.586;12.286;2022-09-12T00:14:53;101737.00;;;20.70
34807;BMP180;18310;55.586;12.286;2022-09-12T00:17:57;101728.00;;;20.60
34807;BMP180;18310;55.586;12.286;2022-09-12T00:21:03;101732.00;;;20.60
34807;BMP180;18310;55.586;12.286;2022-09-12T00:24:08;101722.00;;;20.60
34807;BMP180;18310;55.586;12.286;2022-09-12T00:27:11;101726.00;;;20.60
34807;BMP180;18310;55.586;12.286;2022-09-12T00:30:17;101723.00;;;20.60
34807;BMP180;18310;55.586;12.286;2022-09-12T00:33:21;101729.00;;;20.60
34807;BMP180;18310;55.586;12.286;2022-09-12T00:36:25;101729.00;;;20.60
34807;BMP180;18310;55.586;12.286;2022-09-12T00:39:29;101731.00;;;20.50
34807;BMP180;18310;55.586;12.286;2022-09-12T00:42:33;101733.00;;;20.50
34807;BMP180;18310;55.586;12.286;2022-09-12T00:45:38;101727.00;;;20.50
34807;BMP180;18310;55.586;12.286;2022-09-12T00:48:48;101721.00;;;20.50
34807;BMP180;18310;55.586;12.286;2022-09-12T00:51:57;101720.00;;;20.50
34807;BMP180;18310;55.586;12.286;2022-09-12T00:55:06;101722.00;;;20.50
34807;BMP180;18310;55.586;12.286;2022-09-12T00:58:15;101721.00;;;20.50
34807;BMP180;18310;55.586;12.286;2022-09-12T01:01:21;101721.00;;;20.60
34807;BMP180;18310;55.586;12.286;2022-09-12T01:04:26;101721.00;;;20.60
34807;BMP180;18310;55.586;12.286;2022-09-12T01:07:30;101721.00;;;20.60
34807;BMP180;18310;55.586;12.286;2022-09-12T01:10:41;101723.00;;;20.60
34807;BMP180;18310;55.586;12.286;2022-09-12T01:13:45;101722.00;;;20.50
34807;BMP180;18310;55.586;12.286;2022-09-12T01:16:50;101719.00;;;20.60
34807;BMP180;18310;55.586;12.286;2022-09-12T01:24:32;101723.00;;;20.50
34807;BMP180;18310;55.586;12.286;2022-09-12T01:27:47;101725.00;;;20.40
34807;BMP180;18310;55.586;12.286;2022-09-12T01:31:04;101736.00;;;20.40
34807;BMP180;18310;55.586;12.286;2022-09-12T01:34:18;101723.00;;;20.30
34807;BMP180;18310;55.586;12.286;2022-09-12T01:37:36;101710.00;;;20.30
34807;BMP180;18310;55.586;12.286;2022-09-12T01:40:52;101714.00;;;20.30
34807;BMP180;18310;55.586;12.286;2022-09-12T01:44:06;101715.00;;;20.30
34807;BMP180;18310;55.586;12.286;2022-09-12T01:47:18;101705.00;;;20.30
34807;BMP180;18310;55.586;12.286;2022-09-12T01:50:27;101716.00;;;20.30
34807;BMP180;18310;55.586;12.286;2022-09-12T01:53:40;101714.00;;;20.30
34807;BMP180;18310;55.586;12.286;2022-09-12T01:56:48;101703.00;;;20.30
34807;BMP180;18310;55.586;12.286;2022-09-12T01:59:58;101704.00;;;20.30
34807;BMP180;18310;55.586;12.286;2022-09-12T02:03:09;101701.00;;;20.30
34807;BMP180;18310;55.586;12.286;2022-09-12T02:06:19;101704.00;;;20.30
34807;BMP180;18310;55.586;12.286;2022-09-12T02:09:31;101691.00;;;20.30
34807;BMP180;18310;55.586;12.286;2022-09-12T02:12:43;101699.00;;;20.30
34807;BMP180;18310;55.586;12.286;2022-09-12T02:15:54;101712.00;;;20.20
34807;BMP180;18310;55.586;12.286;2022-09-12T02:19:07;101704.00;;;20.30
34807;BMP180;18310;55.586;12.286;2022-09-12T02:22:17;101699.00;;;20.30
34807;BMP180;18310;55.586;12.286;2022-09-12T02:25:24;101698.00;;;20.20
34807;BMP180;18310;55.586;12.286;2022-09-12T02:28:32;101709.00;;;20.20
34807;BMP180;18310;55.586;12.286;2022-09-12T02:31:44;101697.00;;;20.20
34807;BMP180;18310;55.586;12.286;2022-09-12T02:34:54;101699.00;;;20.20
34807;BMP180;18310;55.586;12.286;2022-09-12T02:38:06;101701.00;;;20.20
34807;BMP180;18310;55.586;12.286;2022-09-12T02:41:16;101697.00;;;20.20
34807;BMP180;18310;55.586;12.286;2022-09-12T02:44:20;101704.00;;;20.20
34807;BMP180;18310;55.586;12.286;2022-09-12T02:47:31;101699.00;;;20.20
34807;BMP180;18310;55.586;12.286;2022-09-12T02:50:37;101702.00;;;20.20
34807;BMP180;18310;55.586;12.286;2022-09-12T02:53:42;101701.00;;;20.20
34807;BMP180;18310;55.586;12.286;2022-09-12T02:56:45;101707.00;;;20.20
34807;BMP180;18310;55.586;12.286;2022-09-12T02:59:55;101703.00;;;20.10
34807;BMP180;18310;55.586;12.286;2022-09-12T03:03:21;101705.00;;;20.10
34807;BMP180;18310;55.586;12.286;2022-09-12T03:06:35;101698.00;;;20.10
34807;BMP180;18310;55.586;12.286;2022-09-12T03:09:46;101697.00;;;20.10
34807;BMP180;18310;55.586;12.286;2022-09-12T03:13:07;101701.00;;;20.10
34807;BMP180;18310;55.586;12.286;2022-09-12T03:16:26;101691.00;;;20.10
34807;BMP180;18310;55.586;12.286;2022-09-12T03:19:35;101691.00;;;20.10
34807;BMP180;18310;55.586;12.286;2022-09-12T03:22:52;101682.00;;;20.10
34807;BMP180;18310;55.586;12.286;2022-09-12T03:26:04;101689.00;;;20.10
34807;BMP180;18310;55.586;12.286;2022-09-12T03:29:10;101696.00;;;20.10
34807;BMP180;18310;55.586;12.286;2022-09-12T03:32:15;101690.00;;;20.10
34807;BMP180;18310;55.586;12.286;2022-09-12T03:35:22;101684.00;;;20.10
34807;BMP180;18310;55.586;12.286;2022-09-12T03:38:27;101692.00;;;20.10
34807;BMP180;18310;55.586;12.286;2022-09-12T03:41:30;101686.00;;;20.10
34807;BMP180;18310;55.586;12.286;2022-09-12T03:44:37;101687.00;;;20.10
34807;BMP180;18310;55.586;12.286;2022-09-12T03:47:48;101693.00;;;20.00
34807;BMP180;18310;55.586;12.286;2022-09-12T03:50:54;101698.00;;;20.00
34807;BMP180;18310;55.586;12.286;2022-09-12T03:53:58;101705.00;;;20.00
34807;BMP180;18310;55.586;12.286;2022-09-12T03:57:02;101701.00;;;19.90
34807;BMP180;18310;55.586;12.286;2022-09-12T04:00:08;101701.00;;;19.90
34807;BMP180;18310;55.586;12.286;2022-09-12T04:03:12;101695.00;;;19.90
34807;BMP180;18310;55.586;12.286;2022-09-12T04:06:18;101696.00;;;19.90
34807;BMP180;18310;55.586;12.286;2022-09-12T04:09:23;101697.00;;;19.90
34807;BMP180;18310;55.586;12.286;2022-09-12T04:12:28;101696.00;;;19.90
34807;BMP180;18310;55.586;12.286;2022-09-12T04:15:31;101697.00;;;19.90
34807;BMP180;18310;55.586;12.286;2022-09-12T04:18:35;101706.00;;;19.90
34807;BMP180;18310;55.586;12.286;2022-09-12T04:21:39;101698.00;;;19.90
34807;BMP180;18310;55.586;12.286;2022-09-12T04:24:43;101696.00;;;19.90
34807;BMP180;18310;55.586;12.286;2022-09-12T04:27:47;101696.00;;;19.80
34807;BMP180;18310;55.586;12.286;2022-09-12T04:30:51;101699.00;;;19.80
34807;BMP180;18310;55.586;12.286;2022-09-12T04:33:56;101693.00;;;19.80
34807;BMP180;18310;55.586;12.286;2022-09-12T04:37:01;101700.00;;;19.80
34807;BMP180;18310;55.586;12.286;2022-09-12T04:40:08;101701.00;;;19.90
34807;BMP180;18310;55.586;12.286;2022-09-12T04:43:14;101706.00;;;19.90
34807;BMP180;18310;55.586;12.286;2022-09-12T04:46:20;101697.00;;;19.90
34807;BMP180;18310;55.586;12.286;2022-09-12T04:49:26;101703.00;;;19.90
34807;BMP180;18310;55.586;12.286;2022-09-12T04:52:30;101707.00;;;19.90
34807;BMP180;18310;55.586;12.286;2022-09-12T04:55:37;101695.00;;;19.90
34807;BMP180;18310;55.586;12.286;2022-09-12T04:58:41;101699.00;;;19.90
34807;BMP180;18310;55.586;12.286;2022-09-12T05:01:45;101701.00;;;19.90
34807;BMP180;18310;55.586;12.286;2022-09-12T05:04:48;101695.00;;;19.90
34807;BMP180;18310;55.586;12.286;2022-09-12T05:07:52;101706.00;;;20.00
34807;BMP180;18310;55.586;12.286;2022-09-12T05:11:02;101704.00;;;20.00
34807;BMP180;18310;55.586;12.286;2022-09-12T05:14:07;101699.00;;;20.10
34807;BMP180;18310;55.586;12.286;2022-09-12T05:17:10;101696.00;;;20.10
34807;BMP180;18310;55.586;12.286;2022-09-12T05:20:13;101690.00;;;20.20
34807;BMP180;18310;55.586;12.286;2022-09-12T05:23:18;101691.00;;;20.20
34807;BMP180;18310;55.586;12.286;2022-09-12T05:26:23;101694.00;;;20.40
34807;BMP180;18310;55.586;12.286;2022-09-12T05:29:26;101692.00;;;20.60
34807;BMP180;18310;55.586;12.286;2022-09-12T05:32:30;101690.00;;;20.70
34807;BMP180;18310;55.586;12.286;2022-09-12T05:35:34;101693.00;;;20.80
34807;BMP180;18310;55.586;12.286;2022-09-12T05:38:39;101691.00;;;20.90
34807;BMP180;18310;55.586;12.286;2022-09-12T05:41:44;101696.00;;;21.00
34807;BMP180;18310;55.586;12.286;2022-09-12T05:44:48;101693.00;;;21.10
34807;BMP180;18310;55.586;12.286;2022-09-12T05:47:51;101692.00;;;21.10
34807;BMP180;18310;55.586;12.286;2022-09-12T05:51:00;101680.00;;;21.30
34807;BMP180;18310;55.586;12.286;2022-09-12T05:54:07;101685.00;;;21.80
34807;BMP180;18310;55.586;12.286;2022-09-12T05:57:12;101694.00;;;22.50
34807;BMP180;18310;55.586;12.286;2022-09-12T06:00:16;101686.00;;;23.20
34807;BMP180;18310;55.586;12.286;2022-09-12T06:03:20;101682.00;;;24.00
34807;BMP180;18310;55.586;12.286;2022-09-12T06:06:25;101691.00;;;24.80
34807;BMP180;18310;55.586;12.286;2022-09-12T06:09:33;101689.00;;;25.60
34807;BMP180;18310;55.586;12.286;2022-09-12T06:12:37;101702.00;;;26.40
34807;BMP180;18310;55.586;12.286;2022-09-12T06:15:41;101694.00;;;27.10
34807;BMP180;18310;55.586;12.286;2022-09-12T06:18:47;101705.00;;;27.80
34807;BMP180;18310;55.586;12.286;2022-09-12T06:21:50;101701.00;;;28.30
34807;BMP180;18310;55.586;12.286;2022-09-12T06:24:54;101703.00;;;28.80
34807;BMP180;18310;55.586;12.286;2022-09-12T06:28:01;101701.00;;;29.20
34807;BMP180;18310;55.586;12.286;2022-09-12T06:31:08;101707.00;;;29.60
34807;BMP180;18310;55.586;12.286;2022-09-12T06:34:14;101716.00;;;30.00
34807;BMP180;18310;55.586;12.286;2022-09-12T06:37:17;101718.00;;;30.30
34807;BMP180;18310;55.586;12.286;2022-09-12T06:40:21;101710.00;;;30.60
34807;BMP180;18310;55.586;12.286;2022-09-12T06:43:27;101715.00;;;31.00
34807;BMP180;18310;55.586;12.286;2022-09-12T06:46:30;101723.00;;;31.30
34807;BMP180;18310;55.586;12.286;2022-09-12T06:49:34;101729.00;;;31.60
34807;BMP180;18310;55.586;12.286;2022-09-12T06:52:37;101730.00;;;31.80
34807;BMP180;18310;55.586;12.286;2022-09-12T06:55:41;101722.00;;;32.00
34807;BMP180;18310;55.586;12.286;2022-09-12T06:58:47;101726.00;;;32.20
34807;BMP180;18310;55.586;12.286;2022-09-12T07:01:52;101729.00;;;32.20
34807;BMP180;18310;55.586;12.286;2022-09-12T07:04:55;101725.00;;;32.20
34807;BMP180;18310;55.586;12.286;2022-09-12T07:07:59;101731.00;;;32.20
34807;BMP180;18310;55.586;12.286;2022-09-12T07:11:09;101734.00;;;32.20
34807;BMP180;18310;55.586;12.286;2022-09-12T07:14:15;101735.00;;;32.20
34807;BMP180;18310;55.586;12.286;2022-09-12T07:17:18;101734.00;;;32.20
34807;BMP180;18310;55.586;12.286;2022-09-12T07:20:21;101735.00;;;31.90
34807;BMP180;18310;55.586;12.286;2022-09-12T07:23:25;101728.00;;;31.40
34807;BMP180;18310;55.586;12.286;2022-09-12T07:26:29;101734.00;;;31.00
34807;BMP180;18310;55.586;12.286;2022-09-12T07:29:34;101728.00;;;30.60
34807;BMP180;18310;55.586;12.286;2022-09-12T07:32:39;101731.00;;;30.30
34807;BMP180;18310;55.586;12.286;2022-09-12T07:35:42;101735.00;;;30.10
34807;BMP180;18310;55.586;12.286;2022-09-12T07:38:45;101730.00;;;29.80
34807;BMP180;18310;55.586;12.286;2022-09-12T07:41:49;101737.00;;;29.60
34807;BMP180;18310;55.586;12.286;2022-09-12T07:44:54;101741.00;;;29.30
34807;BMP180;18310;55.586;12.286;2022-09-12T07:47:57;101737.00;;;29.20
34807;BMP180;18310;55.586;12.286;2022-09-12T07:51:03;101740.00;;;29.10
34807;BMP180;18310;55.586;12.286;2022-09-12T07:54:07;101728.00;;;29.10
34807;BMP180;18310;55.586;12.286;2022-09-12T07:57:11;101739.00;;;29.00
34807;BMP180;18310;55.586;12.286;2022-09-12T08:00:17;101746.00;;;28.90
34807;BMP180;18310;55.586;12.286;2022-09-12T08:03:20;101743.00;;;28.80
34807;BMP180;18310;55.586;12.286;2022-09-12T08:06:25;101738.00;;;28.80
34807;BMP180;18310;55.586;12.286;2022-09-12T08:09:29;101742.00;;;28.80
34807;BMP180;18310;55.586;12.286;2022-09-12T08:12:32;101741.00;;;28.70
34807;BMP180;18310;55.586;12.286;2022-09-12T08:15:37;101736.00;;;28.70
34807;BMP180;18310;55.586;12.286;2022-09-12T08:18:40;101741.00;;;28.70
34807;BMP180;18310;55.586;12.286;2022-09-12T08:21:44;101746.00;;;28.60
34807;BMP180;18310;55.586;12.286;2022-09-12T08:24:47;101736.00;;;28.60
34807;BMP180;18310;55.586;12.286;2022-09-12T08:27:51;101734.00;;;28.60
34807;BMP180;18310;55.586;12.286;2022-09-12T08:31:00;101736.00;;;28.60
34807;BMP180;18310;55.586;12.286;2022-09-12T08:34:05;101737.00;;;28.60
34807;BMP180;18310;55.586;12.286;2022-09-12T08:37:09;101737.00;;;28.60
34807;BMP180;18310;55.586;12.286;2022-09-12T08:40:16;101728.00;;;28.70
34807;BMP180;18310;55.586;12.286;2022-09-12T08:43:41;101739.00;;;28.80
34807;BMP180;18310;55.586;12.286;2022-09-12T08:47:10;101725.00;;;29.00
34807;BMP180;18310;55.586;12.286;2022-09-12T08:50:21;101726.00;;;29.10
34807;BMP180;18310;55.586;12.286;2022-09-12T08:53:27;101728.00;;;29.20
34807;BMP180;18310;55.586;12.286;2022-09-12T08:56:36;101736.00;;;29.30
34807;BMP180;18310;55.586;12.286;2022-09-12T08:59:43;101733.00;;;29.40
34807;BMP180;18310;55.586;12.286;2022-09-12T09:03:26;101729.00;;;29.50
34807;BMP180;18310;55.586;12.286;2022-09-12T09:10:46;101729.00;;;29.40
34807;BMP180;18310;55.586;12.286;2022-09-12T09:14:08;101732.00;;;29.30
34807;BMP180;18310;55.586;12.286;2022-09-12T09:17:36;101727.00;;;29.20
34807;BMP180;18310;55.586;12.286;2022-09-12T09:20:48;101725.00;;;29.20
34807;BMP180;18310;55.586;12.286;2022-09-12T09:24:01;101721.00;;;29.10
34807;BMP180;18310;55.586;12.286;2022-09-12T09:27:18;101717.00;;;29.00
34807;BMP180;18310;55.586;12.286;2022-09-12T09:30:42;101714.00;;;28.90
34807;BMP180;18310;55.586;12.286;2022-09-12T09:33:50;101713.00;;;28.90
34807;BMP180;18310;55.586;12.286;2022-09-12T09:37:14;101707.00;;;28.90
34807;BMP180;18310;55.586;12.286;2022-09-12T09:40:24;101704.00;;;28.90
34807;BMP180;18310;55.586;12.286;2022-09-12T09:43:29;101703.00;;;28.80
34807;BMP180;18310;55.586;12.286;2022-09-12T09:46:33;101697.00;;;28.80
34807;BMP180;18310;55.586;12.286;2022-09-12T09:49:36;101693.00;;;28.80
34807;BMP180;18310;55.586;12.286;2022-09-12T09:52:41;101696.00;;;28.80
34807;BMP180;18310;55.586;12.286;2022-09-12T09:55:45;101696.00;;;28.80
34807;BMP180;18310;55.586;12.286;2022-09-12T09:58:48;101693.00;;;28.80
34807;BMP180;18310;55.586;12.286;2022-09-12T10:01:54;101686.00;;;28.80
34807;BMP180;18310;55.586;12.286;2022-09-12T10:04:58;101696.00;;;28.70
34807;BMP180;18310;55.586;12.286;2022-09-12T10:08:07;101699.00;;;28.80
34807;BMP180;18310;55.586;12.286;2022-09-12T10:11:20;101705.00;;;28.80
34807;BMP180;18310;55.586;12.286;2022-09-12T10:14:37;101703.00;;;28.80
34807;BMP180;18310;55.586;12.286;2022-09-12T10:17:43;101698.00;;;28.80
34807;BMP180;18310;55.586;12.286;2022-09-12T10:20:47;101704.00;;;28.80
34807;BMP180;18310;55.586;12.286;2022-09-12T10:24:00;101701.00;;;28.80
34807;BMP180;18310;55.586;12.286;2022-09-12T10:27:13;101696.00;;;28.80
34807;BMP180;18310;55.586;12.286;2022-09-12T10:30:20;101698.00;;;28.90
34807;BMP180;18310;55.586;12.286;2022-09-12T10:33:28;101702.00;;;28.90
34807;BMP180;18310;55.586;12.286;2022-09-12T10:36:37;101698.00;;;28.90
34807;BMP180;18310;55.586;12.286;2022-09-12T10:40:06;101703.00;;;28.90
34807;BMP180;18310;55.586;12.286;2022-09-12T10:43:37;101688.00;;;28.80
34807;BMP180;18310;55.586;12.286;2022-09-12T10:46:40;101697.00;;;28.70
34807;BMP180;18310;55.586;12.286;2022-09-12T10:49:44;101695.00;;;28.70
34807;BMP180;18310;55.586;12.286;2022-09-12T10:52:47;101690.00;;;28.70
34807;BMP180;18310;55.586;12.286;2022-09-12T10:56:06;101688.00;;;28.80
34807;BMP180;18310;55.586;12.286;2022-09-12T10:59:27;101693.00;;;28.90
34807;BMP180;18310;55.586;12.286;2022-09-12T11:02:50;101683.00;;;29.00
34807;BMP180;18310;55.586;12.286;2022-09-12T11:06:14;101682.00;;;29.00
34807;BMP180;18310;55.586;12.286;2022-09-12T11:10:11;101684.00;;;29.20
34807;BMP180;18310;55.586;12.286;2022-09-12T11:14:07;101681.00;;;29.20
34807;BMP180;18310;55.586;12.286;2022-09-12T11:17:32;101691.00;;;29.30
34807;BMP180;18310;55.586;12.286;2022-09-12T11:20:57;101680.00;;;29.40
34807;BMP180;18310;55.586;12.286;2022-09-12T11:25:00;101682.00;;;29.50
34807;BMP180;18310;55.586;12.286;2022-09-12T11:28:27;101684.00;;;29.60
34807;BMP180;18310;55.586;12.286;2022-09-12T11:32:19;101684.00;;;29.70
34807;BMP180;18310;55.586;12.286;2022-09-12T11:35:51;101689.00;;;29.70
34807;BMP180;18310;55.586;12.286;2022-09-12T11:39:33;101690.00;;;29.60
34807;BMP180;18310;55.586;12.286;2022-09-12T11:43:28;101681.00;;;29.40
34807;BMP180;18310;55.586;12.286;2022-09-12T11:46:57;101682.00;;;29.30
34807;BMP180;18310;55.586;12.286;2022-09-12T11:50:17;101670.00;;;29.30
34807;BMP180;18310;55.586;12.286;2022-09-12T11:53:29;101677.00;;;29.20
34807;BMP180;18310;55.586;12.286;2022-09-12T11:56:40;101674.00;;;29.10
34807;BMP180;18310;55.586;12.286;2022-09-12T12:00:08;101677.00;;;29.10
34807;BMP180;18310;55.586;12.286;2022-09-12T12:03:56;101671.00;;;29.00
34807;BMP180;18310;55.586;12.286;2022-09-12T12:07:21;101668.00;;;28.90
34807;BMP180;18310;55.586;12.286;2022-09-12T12:10:32;101663.00;;;28.90
34807;BMP180;18310;55.586;12.286;2022-09-12T12:13:45;101663.00;;;28.90
34807;BMP180;18310;55.586;12.286;2022-09-12T12:16:50;101663.00;;;28.90
34807;BMP180;18310;55.586;12.286;2022-09-12T12:20:00;101665.00;;;28.80
34807;BMP180;18310;55.586;12.286;2022-09-12T12:23:23;101662.00;;;28.80
34807;BMP180;18310;55.586;12.286;2022-09-12T12:26:54;101661.00;;;28.90
34807;BMP180;18310;55.586;12.286;2022-09-12T12:29:59;101665.00;;;28.90
34807;BMP180;18310;55.586;12.286;2022-09-12T12:36:54;101652.00;;;28.90
34807;BMP180;18310;55.586;12.286;2022-09-12T12:40:07;101657.00;;;28.90
34807;BMP180;18310;55.586;12.286;2022-09-12T12:43:30;101652.00;;;28.80
34807;BMP180;18310;55.586;12.286;2022-09-12T12:46:37;101642.00;;;28.70
34807;BMP180;18310;55.586;12.286;2022-09-12T12:49:41;101642.00;;;28.60
34807;BMP180;18310;55.586;12.286;2022-09-12T12:52:49;101647.00;;;28.50
34807;BMP180;18310;55.586;12.286;2022-09-12T12:55:55;101648.00;;;28.50
34807;BMP180;18310;55.586;12.286;2022-09-12T12:59:02;101634.00;;;28.50
34807;BMP180;18310;55.586;12.286;2022-09-12T13:02:18;101627.00;;;28.50
34807;BMP180;18310;55.586;12.286;2022-09-12T13:05:26;101635.00;;;28.50
34807;BMP180;18310;55.586;12.286;2022-09-12T13:08:35;101621.00;;;28.60
34807;BMP180;18310;55.586;12.286;2022-09-12T13:11:41;101617.00;;;28.60
34807;BMP180;18310;55.586;12.286;2022-09-12T13:14:52;101619.00;;;28.60
34807;BMP180;18310;55.586;12.286;2022-09-12T13:18:00;101617.00;;;28.60
34807;BMP180;18310;55.586;12.286;2022-09-12T13:21:10;101622.00;;;28.60
34807;BMP180;18310;55.586;12.286;2022-09-12T13:24:15;101612.00;;;28.50
34807;BMP180;18310;55.586;12.286;2022-09-12T13:27:23;101609.00;;;28.50
34807;BMP180;18310;55.586;12.286;2022-09-12T13:30:29;101604.00;;;28.50
34807;BMP180;18310;55.586;12.286;2022-09-12T13:33:39;101597.00;;;28.50
34807;BMP180;18310;55.586;12.286;2022-09-12T13:41:02;101591.00;;;28.60
34807;BMP180;18310;55.586;12.286;2022-09-12T13:44:11;101587.00;;;28.60
34807;BMP180;18310;55.586;12.286;2022-09-12T13:47:26;101579.00;;;28.60
34807;BMP180;18310;55.586;12.286;2022-09-12T13:50:38;101570.00;;;28.70
34807;BMP180;18310;55.586;12.286;2022-09-12T13:53:45;101573.00;;;28.70
34807;BMP180;18310;55.586;12.286;2022-09-12T13:56:50;101569.00;;;28.60
34807;BMP180;18310;55.586;12.286;2022-09-12T13:59:56;101564.00;;;28.60
34807;BMP180;18310;55.586;12.286;2022-09-12T14:03:00;101556.00;;;28.70
34807;BMP180;18310;55.586;12.286;2022-09-12T14:06:21;101556.00;;;28.70
34807;BMP180;18310;55.586;12.286;2022-09-12T14:09:31;101553.00;;;28.70
34807;BMP180;18310;55.586;12.286;2022-09-12T14:12:40;101550.00;;;28.70
34807;BMP180;18310;55.586;12.286;2022-09-12T14:15:47;101546.00;;;28.70
34807;BMP180;18310;55.586;12.286;2022-09-12T14:18:52;101537.00;;;28.70
34807;BMP180;18310;55.586;12.286;2022-09-12T14:21:58;101533.00;;;28.70
34807;BMP180;18310;55.586;12.286;2022-09-12T14:25:17;101530.00;;;28.70
34807;BMP180;18310;55.586;12.286;2022-09-12T14:28:24;101532.00;;;28.70
34807;BMP180;18310;55.586;12.286;2022-09-12T14:31:33;101524.00;;;28.70
34807;BMP180;18310;55.586;12.286;2022-09-12T14:34:36;101528.00;;;28.60
34807;BMP180;18310;55.586;12.286;2022-09-12T14:37:41;101526.00;;;28.60
34807;BMP180;18310;55.586;12.286;2022-09-12T14:40:48;101522.00;;;28.60
34807;BMP180;18310;55.586;12.286;2022-09-12T14:43:58;101529.00;;;28.60
34807;BMP180;18310;55.586;12.286;2022-09-12T14:47:20;101525.00;;;28.60
34807;BMP180;18310;55.586;12.286;2022-09-12T14:50:26;101526.00;;;28.60
34807;BMP180;18310;55.586;12.286;2022-09-12T14:53:35;101518.00;;;28.50
34807;BMP180;18310;55.586;12.286;2022-09-12T14:56:41;101514.00;;;28.60
34807;BMP180;18310;55.586;12.286;2022-09-12T14:59:46;101508.00;;;28.60
34807;BMP180;18310;55.586;12.286;2022-09-12T15:02:51;101503.00;;;28.50
34807;BMP180;18310;55.586;12.286;2022-09-12T15:05:56;101493.00;;;28.40
34807;BMP180;18310;55.586;12.286;2022-09-12T15:09:06;101483.00;;;28.40
34807;BMP180;18310;55.586;12.286;2022-09-12T15:12:10;101484.00;;;28.40
34807;BMP180;18310;55.586;12.286;2022-09-12T15:15:18;101482.00;;;28.30
34807;BMP180;18310;55.586;12.286;2022-09-12T15:18:24;101477.00;;;28.20
34807;BMP180;18310;55.586;12.286;2022-09-12T15:21:28;101471.00;;;28.20
34807;BMP180;18310;55.586;12.286;2022-09-12T15:24:32;101474.00;;;28.10
34807;BMP180;18310;55.586;12.286;2022-09-12T15:27:35;101479.00;;;28.10
34807;BMP180;18310;55.586;12.286;2022-09-12T15:30:43;101470.00;;;28.10
34807;BMP180;18310;55.586;12.286;2022-09-12T15:33:47;101478.00;;;28.10
34807;BMP180;18310;55.586;12.286;2022-09-12T15:36:50;101471.00;;;28.10
34807;BMP180;18310;55.586;12.286;2022-09-12T15:39:53;101474.00;;;28.10
34807;BMP180;18310;55.586;12.286;2022-09-12T15:42:57;101474.00;;;28.10
34807;BMP180;18310;55.586;12.286;2022-09-12T15:46:01;101467.00;;;28.00
34807;BMP180;18310;55.586;12.286;2022-09-12T15:49:07;101465.00;;;28.00
34807;BMP180;18310;55.586;12.286;2022-09-12T15:52:15;101468.00;;;28.00
34807;BMP180;18310;55.586;12.286;2022-09-12T15:55:21;101453.00;;;28.00
34807;BMP180;18310;55.586;12.286;2022-09-12T15:58:25;101453.00;;;27.90
34807;BMP180;18310;55.586;12.286;2022-09-12T16:01:31;101441.00;;;27.80
34807;BMP180;18310;55.586;12.286;2022-09-12T16:04:34;101437.00;;;27.70
34807;BMP180;18310;55.586;12.286;2022-09-12T16:07:37;101439.00;;;27.60
34807;BMP180;18310;55.586;12.286;2022-09-12T16:10:43;101446.00;;;27.60
34807;BMP180;18310;55.586;12.286;2022-09-12T16:13:47;101456.00;;;27.50
34807;BMP180;18310;55.586;12.286;2022-09-12T16:16:53;101458.00;;;27.50
34807;BMP180;18310;55.586;12.286;2022-09-12T16:20:00;101458.00;;;27.50
34807;BMP180;18310;55.586;12.286;2022-09-12T16:23:04;101459.00;;;27.50
34807;BMP180;18310;55.586;12.286;2022-09-12T16:26:07;101463.00;;;27.40
34807;BMP180;18310;55.586;12.286;2022-09-12T16:29:12;101454.00;;;27.40
34807;BMP180;18310;55.586;12.286;2022-09-12T16:32:17;101448.00;;;27.40
34807;BMP180;18310;55.586;12.286;2022-09-12T16:35:21;101451.00;;;27.30
34807;BMP180;18310;55.586;12.286;2022-09-12T16:38:25;101438.00;;;27.30
34807;BMP180;18310;55.586;12.286;2022-09-12T16:41:28;101438.00;;;27.20
34807;BMP180;18310;55.586;12.286;2022-09-12T16:44:31;101438.00;;;27.10
34807;BMP180;18310;55.586;12.286;2022-09-12T16:47:36;101426.00;;;27.10
34807;BMP180;18310;55.586;12.286;2022-09-12T16:50:39;101423.00;;;27.10
34807;BMP180;18310;55.586;12.286;2022-09-12T16:53:42;101425.00;;;27.10
34807;BMP180;18310;55.586;12.286;2022-09-12T16:56:46;101425.00;;;27.00
34807;BMP180;18310;55.586;12.286;2022-09-12T16:59:50;101424.00;;;27.00
34807;BMP180;18310;55.586;12.286;2022-09-12T17:02:55;101411.00;;;26.90
34807;BMP180;18310;55.586;12.286;2022-09-12T17:05:59;101413.00;;;26.90
34807;BMP180;18310;55.586;12.286;2022-09-12T17:09:03;101407.00;;;26.80
34807;BMP180;18310;55.586;12.286;2022-09-12T17:12:07;101408.00;;;26.70
34807;BMP180;18310;55.586;12.286;2022-09-12T17:15:10;101401.00;;;26.60
34807;BMP180;18310;55.586;12.286;2022-09-12T17:18:15;101386.00;;;26.60
34807;BMP180;18310;55.586;12.286;2022-09-12T17:21:19;101387.00;;;26.50
34807;BMP180;18310;55.586;12.286;2022-09-12T17:24:23;101386.00;;;26.50
34807;BMP180;18310;55.586;12.286;2022-09-12T17:27:26;101374.00;;;26.40
34807;BMP180;18310;55.586;12.286;2022-09-12T17:30:32;101381.00;;;26.30
34807;BMP180;18310;55.586;12.286;2022-09-12T17:33:38;101386.00;;;26.30
34807;BMP180;18310;55.586;12.286;2022-09-12T17:36:43;101384.00;;;26.20
34807;BMP180;18310;55.586;12.286;2022-09-12T17:39:46;101374.00;;;26.20
34807;BMP180;18310;55.586;12.286;2022-09-12T17:42:50;101384.00;;;26.20
34807;BMP180;18310;55.586;12.286;2022-09-12T17:45:54;101376.00;;;26.10
34807;BMP180;18310;55.586;12.286;2022-09-12T17:49:02;101375.00;;;26.00
34807;BMP180;18310;55.586;12.286;2022-09-12T17:52:05;101373.00;;;26.00
34807;BMP180;18310;55.586;12.286;2022-09-12T17:55:09;101370.00;;;26.00